Békásmegyer ÉK további részletek Békásmegyer ÉK


Békásmegyer DK további részletek Békásmegyer DK


Csillaghegy NY további részletek Csillaghegy NY


Előrejelzés további részletek Előrejelzés


Eu hőtérkép további részletek Eu hőtérkép


Műhold további részletek Műhold


Radar további részletek Radar


EU min. hőtérkép további részletek EU min. hőtérkép


EU max. hőtérkép további részletek EU max. hőtérkép



Fog From: 29-10-2020 00:00 Until: 23:59 warning for: Fog Level: Yellow info button

Közeli METAR jelentések

   
LHBP - Budapest
Távolság az állomástól: DK 24 km
Frissítve: Oct 29 2020 3:30 am
Köd, Erősen felhős  
Köd, Erősen felhős  
   Szél: Szélcsend
Szél: Szélcsend
Hőmérséklet: 5°C
Harmatpont: 5°C
Páratartalom: 100%
Légnyomás: 1017 hPa
Felhők: Erősen felhős
Látótávolság: 0 km
Felhő fajták: Erősen felhős 100 ft
LHBP 290230Z 00000KT 0300 R31L/0900U R31R/0450D FG BKN001 05/05 Q1017 NOSIG
LHDC - Debrecen
Távolság az állomástól: K 192 km
Frissítve: Oct 29 2020 3:15 am
Köd, Borult  
Köd, Borult  
   Szél: Szélcsend
Szél: Szélcsend
Hőmérséklet: 7°C
Harmatpont: 7°C
Páratartalom: 100%
Légnyomás: 1017 hPa
Felhők: Borult
Látótávolság: 0 km
Felhő fajták: Borult 100 ft
LHDC 290215Z AUTO 00000KT 0300 R04/0375N FG VV001 07/07 Q1017
LHKE - Kecskemét
Távolság az állomástól: DK 91 km
Frissítve: Oct 29 2020 3:15 am
Köd, Borult  
Köd, Borult  
   Szél: Szélcsend
Szél: Szélcsend
Hőmérséklet: 6°C
Harmatpont: 6°C
Páratartalom: 100%
Légnyomás: 1017 hPa
Felhők: Borult
Látótávolság: 0 km
Felhő fajták: Erősen felhős 100 ft,
Borult 400 ft
LHKE 290215Z 00000KT 0200 FG BKN001 OVC004 06/06 Q1017 R12/01//95 NOSIG RMK RED
LHPA - Pápa
Távolság az állomástól: NY 121 km
Frissítve: Oct 29 2020 3:29 am
Köd, Közepesen felhős  
Köd, Közepesen felhős  
   Szél: Szélcsend
Szél: Szélcsend
Hőmérséklet: 6°C
Harmatpont: 6°C
Páratartalom: 100%
Légnyomás: 1018 hPa
Felhők: Közepesen felhős
Látótávolság: 1 km
Felhő fajták: Közepesen felhős 20000 ft
LHPA 290229Z 00000KT 0600 R16/0400V1000D FG SCT200 06/06 Q1018 RMK RED
LZSL - Sliac, Slovakia
Távolság az állomástól: É 116 km
Frissítve: Oct 29 2020 3:30 am
Köd, Borult  
Köd, Borult  
   Szél: Szélcsend
Szél: Szélcsend
Hőmérséklet: 8°C
Harmatpont: 8°C
Páratartalom: 100%
Légnyomás: 1017 hPa
Felhők: Borult
Látótávolság: 0 km
Felhő fajták: Borult 100 ft
LZSL 290230Z 00000KT 0100 R36/0700D FG OVC001 08/08 Q1017
LOWW - Wien, Austria
Távolság az állomástól: NY 195 km
Frissítve: Oct 29 2020 3:20 am
Derült  
Derült  
   Szél: DDNY 5.6 km/h
Szél: DDNY 5.6 km/h
Hőmérséklet: 8°C
Szélhűtés: 7°C
Harmatpont: 7°C
Páratartalom: 93%
Légnyomás: 1017 hPa
Látótávolság: More than 10 km
Felhő fajták: Derült
LOWW 290220Z 21003KT CAVOK 08/07 Q1017 NOSIG

Eredeti script  Saratoga-weather.org Adapted for the template by  Weerstation Leuven